createdAt,value
2019-02-16T00:01:59.342Z,6.62
2019-02-16T00:04:27.104Z,6.58
2019-02-16T00:06:55.051Z,6.53
2019-02-16T00:09:22.799Z,6.39
2019-02-16T00:11:50.715Z,6.34
2019-02-16T00:14:18.564Z,6.25
2019-02-16T00:16:46.319Z,6.08
2019-02-16T00:19:14.073Z,6.16
2019-02-16T00:21:44.629Z,6.18
2019-02-16T00:24:12.547Z,6.43
2019-02-16T00:26:40.303Z,6.28
2019-02-16T00:29:08.093Z,6.25
2019-02-16T00:31:36.066Z,6.15
2019-02-16T00:34:04.029Z,6.10
2019-02-16T00:36:31.836Z,6.05
2019-02-16T00:38:59.578Z,6.08
2019-02-16T00:41:27.487Z,6.08
2019-02-16T00:43:55.257Z,6.02
2019-02-16T00:46:23.018Z,5.96
2019-02-16T00:48:50.942Z,6.02
2019-02-16T00:51:18.707Z,6.09
2019-02-16T00:53:49.386Z,6.09
2019-02-16T00:56:17.168Z,6.12
2019-02-16T00:58:44.898Z,6.12
2019-02-16T01:01:12.684Z,6.07
2019-02-16T01:03:40.476Z,6.02
2019-02-16T01:06:08.264Z,5.94
2019-02-16T01:08:36.019Z,5.91
2019-02-16T01:11:03.798Z,5.97
2019-02-16T01:13:31.558Z,5.97
2019-02-16T01:15:59.344Z,5.85
2019-02-16T01:18:27.266Z,5.77
2019-02-16T01:20:55.067Z,5.66
2019-02-16T01:23:23.024Z,5.73
2019-02-16T01:25:50.852Z,5.52
2019-02-16T01:28:18.587Z,5.51
2019-02-16T01:30:46.325Z,5.55
2019-02-16T01:33:14.279Z,5.36
2019-02-16T01:35:42.046Z,5.43
2019-02-16T01:38:10.097Z,5.35
2019-02-16T01:40:37.857Z,5.37
2019-02-16T01:43:05.630Z,5.50
2019-02-16T01:45:33.370Z,5.55
2019-02-16T01:48:01.189Z,5.76
2019-02-16T01:50:29.124Z,5.83
2019-02-16T01:52:56.977Z,5.94
2019-02-16T01:55:24.710Z,6.04
2019-02-16T01:57:52.481Z,5.98
2019-02-16T02:00:20.397Z,5.93
2019-02-16T02:02:48.206Z,6.02
2019-02-16T02:05:15.947Z,6.22
2019-02-16T02:07:43.705Z,6.40
2019-02-16T02:10:11.635Z,6.40
2019-02-16T02:12:39.411Z,6.42
2019-02-16T02:15:08.189Z,6.41
2019-02-16T02:17:35.945Z,6.38
2019-02-16T02:20:03.881Z,6.29
2019-02-16T02:22:31.673Z,6.43
2019-02-16T02:24:59.597Z,6.50
2019-02-16T02:27:27.359Z,6.44
2019-02-16T02:29:55.098Z,6.53
2019-02-16T02:32:22.869Z,6.57
2019-02-16T02:34:50.829Z,6.75
2019-02-16T02:37:18.571Z,6.70
2019-02-16T02:39:46.489Z,6.72
2019-02-16T02:42:14.264Z,6.82
2019-02-16T02:44:43.037Z,6.77
2019-02-16T02:47:10.788Z,6.68
2019-02-16T02:49:38.700Z,6.62
2019-02-16T02:52:06.849Z,6.73
2019-02-16T02:54:34.601Z,6.73
2019-02-16T02:57:02.398Z,6.64
2019-02-16T02:59:30.313Z,6.54
2019-02-16T03:01:58.051Z,6.66
2019-02-16T03:04:25.857Z,6.52
2019-02-16T03:06:53.590Z,6.59
2019-02-16T03:09:21.551Z,6.58
2019-02-16T03:11:49.290Z,6.61
2019-02-16T03:14:17.501Z,6.52
2019-02-16T03:16:45.252Z,6.52
2019-02-16T03:19:13.187Z,6.46
2019-02-16T03:21:40.940Z,6.46
2019-02-16T03:24:08.883Z,6.59
2019-02-16T03:27:29.856Z,6.51
2019-02-16T03:31:09.504Z,6.47
2019-02-16T03:34:02.461Z,6.70
2019-02-16T03:38:01.060Z,6.62
2019-02-16T03:40:28.858Z,6.54
2019-02-16T03:42:56.606Z,6.59
2019-02-16T03:45:24.385Z,6.40
2019-02-16T03:47:52.177Z,6.47
2019-02-16T03:50:20.065Z,6.39
2019-02-16T03:52:48.175Z,6.24
2019-02-16T03:55:16.199Z,6.35
2019-02-16T03:57:43.936Z,6.28
2019-02-16T04:00:12.002Z,6.23
2019-02-16T04:02:39.751Z,6.21
2019-02-16T04:05:07.549Z,6.17
2019-02-16T04:07:35.524Z,6.26
2019-02-16T04:10:04.276Z,6.32
2019-02-16T04:12:32.056Z,6.30
2019-02-16T04:15:00.007Z,6.31
2019-02-16T04:17:27.743Z,6.34
2019-02-16T04:19:55.644Z,6.44
2019-02-16T04:22:24.928Z,6.41
2019-02-16T04:24:53.041Z,6.44
2019-02-16T04:27:21.046Z,6.35
2019-02-16T04:29:48.777Z,6.31
2019-02-16T04:32:16.586Z,6.41
2019-02-16T04:34:44.530Z,6.29
2019-02-16T04:37:12.477Z,6.24
2019-02-16T04:39:40.277Z,6.23
2019-02-16T04:42:08.043Z,6.19
2019-02-16T04:44:35.773Z,6.24
2019-02-16T04:47:03.564Z,6.17
2019-02-16T04:49:31.303Z,6.19
2019-02-16T04:51:59.222Z,6.09
2019-02-16T04:54:26.994Z,6.17
2019-02-16T04:56:54.800Z,6.11
2019-02-16T04:59:22.519Z,6.08
2019-02-16T05:01:50.278Z,6.01
2019-02-16T05:04:18.068Z,5.95
2019-02-16T05:06:45.818Z,5.89
2019-02-16T05:09:13.566Z,5.85
2019-02-16T05:11:41.577Z,5.86
2019-02-16T05:14:09.298Z,5.84
2019-02-16T05:16:37.226Z,5.79
2019-02-16T05:19:04.946Z,5.72
2019-02-16T05:21:32.713Z,5.64
2019-02-16T05:24:00.475Z,5.64
2019-02-16T05:26:28.402Z,5.60
2019-02-16T05:28:56.179Z,5.47
2019-02-16T05:31:24.090Z,5.40
2019-02-16T05:33:51.875Z,5.22
2019-02-16T05:36:19.824Z,5.25
2019-02-16T05:38:47.754Z,5.18
2019-02-16T05:41:15.694Z,5.11
2019-02-16T05:43:43.483Z,5.09
2019-02-16T05:46:11.454Z,5.10
2019-02-16T05:48:39.416Z,5.13
2019-02-16T05:51:07.347Z,5.09
2019-02-16T05:53:35.115Z,5.21
2019-02-16T05:56:03.036Z,5.16
2019-02-16T05:58:30.879Z,5.10
2019-02-16T06:00:58.714Z,5.07
2019-02-16T06:03:26.665Z,4.94
2019-02-16T06:05:54.392Z,4.91
2019-02-16T06:08:22.348Z,4.82
2019-02-16T06:10:50.123Z,4.73
2019-02-16T06:13:17.890Z,4.91
2019-02-16T06:15:45.633Z,5.07
2019-02-16T06:18:13.593Z,5.20
2019-02-16T06:20:41.340Z,5.19
2019-02-16T06:23:09.310Z,5.02
2019-02-16T06:25:37.039Z,5.25
2019-02-16T06:28:04.831Z,5.21
2019-02-16T06:30:32.577Z,5.26
2019-02-16T06:33:00.363Z,5.34
2019-02-16T06:35:35.159Z,5.20
2019-02-16T06:38:03.098Z,5.23
2019-02-16T06:40:30.850Z,5.26
2019-02-16T06:42:58.630Z,5.29
2019-02-16T06:45:26.389Z,5.39
2019-02-16T06:47:54.321Z,5.39
2019-02-16T06:50:22.076Z,5.39
2019-02-16T06:52:50.020Z,5.44
2019-02-16T06:55:17.782Z,5.58
2019-02-16T06:57:48.318Z,5.59
2019-02-16T07:00:18.491Z,5.66
2019-02-16T07:02:46.424Z,5.74
2019-02-16T07:05:14.212Z,5.68
2019-02-16T07:07:42.032Z,5.75
2019-02-16T07:10:09.792Z,5.92
2019-02-16T07:12:37.543Z,5.86
2019-02-16T07:15:05.610Z,6.03
2019-02-16T07:18:01.643Z,5.96
2019-02-16T07:20:29.368Z,5.95
2019-02-16T07:22:59.958Z,5.92
2019-02-16T07:25:27.712Z,5.98
2019-02-16T07:27:55.490Z,5.96
2019-02-16T07:30:23.251Z,5.95
2019-02-16T07:32:50.982Z,6.14
2019-02-16T07:35:18.773Z,6.08
2019-02-16T07:37:46.540Z,5.91
2019-02-16T07:40:14.344Z,5.96
2019-02-16T07:42:50.287Z,6.10
2019-02-16T07:45:34.117Z,6.04
2019-02-16T07:48:15.364Z,6.07
2019-02-16T07:51:05.505Z,6.02
2019-02-16T07:53:44.274Z,5.96
2019-02-16T07:56:16.774Z,6.04
2019-02-16T07:58:52.237Z,6.13
2019-02-16T08:01:26.291Z,6.27
2019-02-16T08:04:22.255Z,6.42
2019-02-16T08:06:57.611Z,6.49
2019-02-16T08:09:31.269Z,6.54
2019-02-16T08:12:18.629Z,6.56
2019-02-16T08:15:01.227Z,6.76
2019-02-16T08:17:47.165Z,6.77
2019-02-16T08:20:27.624Z,7.00
2019-02-16T08:23:26.871Z,7.03
2019-02-16T08:26:17.262Z,7.02
2019-02-16T08:28:52.993Z,7.28
2019-02-16T08:31:46.183Z,7.29
2019-02-16T08:34:22.995Z,7.38
2019-02-16T08:37:00.435Z,7.47
2019-02-16T08:39:47.849Z,7.67
2019-02-16T08:42:33.489Z,7.67
2019-02-16T08:45:17.326Z,7.85
2019-02-16T08:47:55.638Z,8.12
2019-02-16T08:50:52.156Z,8.22
2019-02-16T08:53:36.937Z,8.38
2019-02-16T08:56:23.024Z,8.64
2019-02-16T08:59:13.480Z,8.82
2019-02-16T09:02:18.868Z,8.90
2019-02-16T09:04:55.019Z,9.00
2019-02-16T09:07:45.276Z,9.15
2019-02-16T09:10:23.968Z,9.35
2019-02-16T09:13:26.531Z,9.49
2019-02-16T09:16:08.857Z,9.49
2019-02-16T09:18:53.960Z,9.67
2019-02-16T09:21:50.434Z,9.70
2019-02-16T09:24:40.637Z,9.70
2019-02-16T09:27:37.112Z,9.93
2019-02-16T09:30:16.334Z,10.01
2019-02-16T09:33:09.751Z,10.24
2019-02-16T09:35:55.470Z,10.31
2019-02-16T09:39:00.924Z,10.47
2019-02-16T09:41:33.926Z,10.53
2019-02-16T09:44:21.264Z,10.55
2019-02-16T09:47:00.902Z,10.64
2019-02-16T09:49:38.615Z,10.98
2019-02-16T09:52:37.859Z,11.24
2019-02-16T09:55:11.468Z,11.29
2019-02-16T09:57:57.048Z,11.47
2019-02-16T10:00:56.560Z,11.62
2019-02-16T10:03:49.734Z,11.90
2019-02-16T10:06:48.965Z,11.82
2019-02-16T10:09:37.845Z,11.89
2019-02-16T10:12:31.161Z,12.01
2019-02-16T10:15:33.541Z,12.05
2019-02-16T10:18:16.461Z,12.14
2019-02-16T10:21:02.201Z,12.17
2019-02-16T10:23:49.601Z,12.26
2019-02-16T10:26:40.042Z,12.38
2019-02-16T10:29:30.188Z,12.33
2019-02-16T10:32:14.989Z,12.53
2019-02-16T10:34:48.703Z,12.71
2019-02-16T10:37:25.495Z,12.66
2019-02-16T10:40:04.529Z,12.79
2019-02-16T10:42:51.952Z,12.75
2019-02-16T10:45:37.727Z,12.96
2019-02-16T10:48:17.290Z,13.11
2019-02-16T10:50:59.823Z,13.36
2019-02-16T10:53:49.759Z,13.56
2019-02-16T10:56:39.971Z,13.70
2019-02-16T10:59:36.307Z,15.94
2019-02-16T11:02:22.350Z,19.08
2019-02-16T11:05:07.770Z,21.53
2019-02-16T11:07:41.327Z,21.39
2019-02-16T11:10:27.234Z,19.88
2019-02-16T11:13:17.728Z,18.07
2019-02-16T11:16:03.835Z,17.02
2019-02-16T11:18:51.422Z,16.37
2019-02-16T11:21:38.781Z,15.50
2019-02-16T11:24:35.809Z,15.34
2019-02-16T11:27:14.880Z,15.10
2019-02-16T11:29:48.883Z,14.89
2019-02-16T11:32:36.455Z,14.85
2019-02-16T11:35:27.232Z,14.92
2019-02-16T11:38:20.584Z,15.13
2019-02-16T11:41:08.830Z,15.09
2019-02-16T11:44:11.261Z,15.09
2019-02-16T11:47:07.519Z,15.20
2019-02-16T11:49:58.153Z,15.49
2019-02-16T11:52:43.856Z,16.90
2019-02-16T11:55:21.801Z,19.93
2019-02-16T11:57:57.188Z,22.89
2019-02-16T12:00:48.731Z,21.96
2019-02-16T12:03:34.723Z,19.95
2019-02-16T12:06:06.653Z,18.57
2019-02-16T12:08:45.216Z,17.97
2019-02-16T12:11:32.762Z,18.39
2019-02-16T12:14:38.496Z,19.03
2019-02-16T12:17:24.590Z,20.33
2019-02-16T12:20:04.066Z,23.45
2019-02-16T12:22:40.980Z,26.15
2019-02-16T12:25:23.576Z,28.53
2019-02-16T12:28:25.905Z,29.61
2019-02-16T12:31:16.320Z,27.37
2019-02-16T12:33:56.759Z,24.41
2019-02-16T12:36:49.919Z,22.18
2019-02-16T12:39:33.127Z,20.43
2019-02-16T12:42:18.790Z,19.32
2019-02-16T12:45:04.651Z,18.70
2019-02-16T12:47:54.808Z,18.14
2019-02-16T12:50:36.455Z,17.80
2019-02-16T12:53:27.739Z,17.60
2019-02-16T12:56:20.955Z,17.22
2019-02-16T12:59:06.924Z,16.88
2019-02-16T13:01:57.346Z,16.86
2019-02-16T13:04:43.260Z,17.04
2019-02-16T13:07:34.238Z,16.88
2019-02-16T13:10:30.491Z,16.75
2019-02-16T13:13:20.730Z,16.78
2019-02-16T13:15:58.202Z,16.81
2019-02-16T13:18:45.788Z,16.66
2019-02-16T13:21:21.090Z,16.60
2019-02-16T13:24:10.744Z,16.55
2019-02-16T13:26:44.273Z,16.45
2019-02-16T13:29:22.277Z,16.55
2019-02-16T13:32:05.063Z,16.67
2019-02-16T13:34:47.829Z,16.64
2019-02-16T13:37:27.075Z,16.74
2019-02-16T13:40:18.080Z,16.84
2019-02-16T13:43:03.728Z,16.92
2019-02-16T13:45:47.388Z,16.96
2019-02-16T13:48:23.201Z,16.97
2019-02-16T13:50:57.867Z,16.99
2019-02-16T13:53:43.552Z,16.89
2019-02-16T13:56:21.006Z,16.95
2019-02-16T13:59:02.443Z,17.00
2019-02-16T14:01:37.187Z,16.94
2019-02-16T14:04:30.736Z,16.93
2019-02-16T14:07:07.018Z,16.97
2019-02-16T14:10:03.347Z,16.99
2019-02-16T14:12:59.593Z,17.02
2019-02-16T14:15:46.187Z,16.79
2019-02-16T14:18:14.141Z,16.67
2019-02-16T14:20:42.095Z,17.44
2019-02-16T14:23:09.893Z,20.46
2019-02-16T14:25:44.884Z,25.19
2019-02-16T14:28:11.072Z,28.66
2019-02-16T14:30:41.758Z,31.09
2019-02-16T14:33:09.551Z,32.62
2019-02-16T14:35:37.359Z,34.09
2019-02-16T14:38:39.677Z,34.91
2019-02-16T14:41:07.652Z,35.17
2019-02-16T14:43:35.437Z,35.00
2019-02-16T14:46:03.301Z,35.65
2019-02-16T14:48:31.047Z,35.66
2019-02-16T14:50:59.089Z,35.53
2019-02-16T14:53:26.893Z,33.98
2019-02-16T14:56:01.980Z,34.44
2019-02-16T14:58:29.893Z,34.76
2019-02-16T15:00:57.667Z,33.99
2019-02-16T15:03:25.438Z,33.19
2019-02-16T15:05:53.219Z,32.28
2019-02-16T15:08:21.045Z,32.60
2019-02-16T15:10:48.944Z,33.29
2019-02-16T15:13:16.877Z,33.70
2019-02-16T15:15:44.674Z,33.64
2019-02-16T15:18:12.514Z,33.48
2019-02-16T15:20:40.347Z,33.29
2019-02-16T15:23:08.137Z,32.79
2019-02-16T15:25:35.968Z,32.39
2019-02-16T15:28:03.797Z,31.45
2019-02-16T15:30:31.640Z,30.42
2019-02-16T15:32:59.437Z,28.90
2019-02-16T15:35:27.259Z,26.60
2019-02-16T15:37:55.089Z,26.24
2019-02-16T15:40:22.925Z,25.46
2019-02-16T15:42:50.815Z,24.53
2019-02-16T15:45:18.718Z,23.82
2019-02-16T15:47:46.655Z,22.46
2019-02-16T15:50:14.503Z,21.65
2019-02-16T15:52:42.299Z,20.79
2019-02-16T15:55:10.383Z,19.86
2019-02-16T15:57:38.209Z,19.15
2019-02-16T16:00:09.961Z,18.39
2019-02-16T16:02:37.839Z,17.83
2019-02-16T16:05:05.807Z,17.35
2019-02-16T16:07:33.715Z,16.91
2019-02-16T16:10:11.736Z,16.53
2019-02-16T16:12:45.288Z,16.21
2019-02-16T16:15:30.972Z,15.85
2019-02-16T16:18:16.779Z,15.61
2019-02-16T16:21:06.440Z,15.35
2019-02-16T16:23:51.443Z,15.13
2019-02-16T16:26:39.179Z,14.84
2019-02-16T16:29:21.319Z,14.63
2019-02-16T16:32:23.629Z,14.38
2019-02-16T16:35:05.047Z,14.14
2019-02-16T16:37:38.599Z,13.83
2019-02-16T16:40:15.159Z,13.67
2019-02-16T16:42:49.473Z,13.52
2019-02-16T16:45:39.383Z,13.37
2019-02-16T16:48:19.955Z,13.28
2019-02-16T16:50:53.892Z,13.17
2019-02-16T16:53:34.017Z,13.14
2019-02-16T16:56:30.276Z,13.07
2019-02-16T16:59:20.475Z,12.97
2019-02-16T17:02:17.111Z,12.87
2019-02-16T17:05:03.262Z,12.77
2019-02-16T17:07:56.787Z,12.68
2019-02-16T17:10:37.978Z,12.52
2019-02-16T17:13:16.223Z,12.42
2019-02-16T17:16:12.466Z,12.37
2019-02-16T17:18:59.881Z,12.31
2019-02-16T17:21:47.274Z,12.21
2019-02-16T17:24:30.955Z,12.05
2019-02-16T17:27:30.189Z,11.93
2019-02-16T17:30:17.621Z,11.91
2019-02-16T17:33:08.007Z,11.74
2019-02-16T17:35:43.590Z,11.64
2019-02-16T17:38:43.134Z,11.73
2019-02-16T17:41:39.468Z,11.62
2019-02-16T17:44:41.962Z,11.55
2019-02-16T17:47:30.768Z,11.48
2019-02-16T17:50:23.994Z,11.52
2019-02-16T17:53:09.832Z,11.66
2019-02-16T17:55:57.052Z,11.69
2019-02-16T17:58:33.003Z,11.80
2019-02-16T18:01:08.774Z,11.78
2019-02-16T18:03:58.685Z,11.93
2019-02-16T18:06:51.927Z,11.90
2019-02-16T18:09:37.823Z,11.94
2019-02-16T18:12:28.165Z,12.08
2019-02-16T18:15:13.095Z,12.03
2019-02-16T18:18:06.190Z,11.92
2019-02-16T18:21:02.669Z,11.73
2019-02-16T18:23:38.147Z,11.57
2019-02-16T18:26:31.289Z,11.46
2019-02-16T18:29:18.703Z,11.33
2019-02-16T18:32:04.787Z,11.25
2019-02-16T18:35:01.339Z,11.17
2019-02-16T18:37:38.096Z,11.11
2019-02-16T18:40:31.703Z,11.02
2019-02-16T18:43:24.965Z,11.11
2019-02-16T18:46:15.012Z,11.02
2019-02-16T18:49:04.765Z,11.05
2019-02-16T18:51:57.951Z,11.12
2019-02-16T18:54:31.653Z,11.06
2019-02-16T18:57:12.999Z,11.11
2019-02-16T19:00:06.205Z,11.20
2019-02-16T19:02:53.582Z,11.08
2019-02-16T19:05:32.752Z,10.93
2019-02-16T19:08:15.167Z,10.79
2019-02-16T19:11:17.755Z,10.55
2019-02-16T19:14:05.096Z,10.43
2019-02-16T19:17:04.299Z,10.39
2019-02-16T19:19:52.036Z,10.33
2019-02-16T19:22:38.169Z,10.29
2019-02-16T19:25:24.306Z,10.34
2019-02-16T19:28:23.914Z,10.37
2019-02-16T19:31:04.429Z,10.31
2019-02-16T19:33:51.805Z,10.18
2019-02-16T19:36:27.515Z,10.09
2019-02-16T19:39:23.751Z,10.12
2019-02-16T19:42:00.056Z,10.07
2019-02-16T19:44:53.561Z,9.99
2019-02-16T19:47:33.729Z,10.00
2019-02-16T19:50:21.081Z,9.95
2019-02-16T19:53:14.221Z,9.95
2019-02-16T19:55:59.941Z,9.92
2019-02-16T19:58:45.624Z,10.11
2019-02-16T20:01:20.569Z,10.07
2019-02-16T20:04:06.303Z,10.04
2019-02-16T20:06:56.404Z,10.05
2019-02-16T20:09:30.243Z,10.00
2019-02-16T20:12:23.489Z,9.99
2019-02-16T20:15:13.758Z,9.88
2019-02-16T20:18:01.930Z,9.69
2019-02-16T20:20:58.223Z,9.62
2019-02-16T20:23:37.619Z,9.51
2019-02-16T20:26:28.047Z,9.41
2019-02-16T20:29:21.292Z,9.36
2019-02-16T20:31:58.457Z,9.47
2019-02-16T20:35:00.939Z,9.46
2019-02-16T20:37:43.062Z,9.36
2019-02-16T20:40:39.292Z,9.43
2019-02-16T20:43:13.509Z,9.43
2019-02-16T20:45:48.424Z,9.32
2019-02-16T20:48:50.668Z,9.32
2019-02-16T20:51:29.528Z,9.27
2019-02-16T20:54:03.525Z,9.23
2019-02-16T20:56:45.171Z,9.20
2019-02-16T20:59:28.737Z,9.24
2019-02-16T21:02:06.584Z,9.16
2019-02-16T21:04:49.102Z,9.13
2019-02-16T21:07:39.502Z,9.01
2019-02-16T21:10:17.771Z,8.96
2019-02-16T21:13:04.664Z,8.95
2019-02-16T21:15:52.044Z,8.94
2019-02-16T21:18:41.925Z,8.78
2019-02-16T21:21:30.729Z,8.63
2019-02-16T21:24:29.950Z,8.66
2019-02-16T21:27:35.342Z,8.79
2019-02-16T21:30:21.719Z,8.67
2019-02-16T21:32:58.275Z,8.66
2019-02-16T21:35:44.344Z,8.69
2019-02-16T21:38:22.915Z,8.64
2019-02-16T21:41:15.306Z,8.70
2019-02-16T21:44:02.420Z,8.61
2019-02-16T21:46:49.820Z,8.67
2019-02-16T21:49:41.192Z,8.70
2019-02-16T21:52:37.681Z,8.62
2019-02-16T21:55:24.062Z,8.71
2019-02-16T21:58:10.142Z,8.49
2019-02-16T22:01:00.533Z,8.35
2019-02-16T22:03:46.391Z,8.34
2019-02-16T22:06:25.534Z,8.27
2019-02-16T22:09:04.795Z,8.26
2019-02-16T22:11:42.759Z,8.24
2019-02-16T22:14:10.629Z,8.23
2019-02-16T22:16:38.460Z,8.10
2019-02-16T22:19:06.222Z,8.06
2019-02-16T22:21:33.994Z,7.99
2019-02-16T22:24:01.813Z,7.85
2019-02-16T22:26:29.566Z,7.71
2019-02-16T22:28:57.355Z,7.63
2019-02-16T22:31:25.128Z,7.54
2019-02-16T22:33:52.942Z,7.59
2019-02-16T22:36:20.753Z,7.61
2019-02-16T22:38:48.533Z,7.50
2019-02-16T22:41:16.302Z,7.53
2019-02-16T22:43:44.081Z,7.45
2019-02-16T22:46:11.872Z,7.48
2019-02-16T22:48:39.675Z,7.47
2019-02-16T22:51:09.473Z,7.57
2019-02-16T22:53:37.261Z,7.68
2019-02-16T22:56:05.343Z,7.79
2019-02-16T22:58:33.123Z,7.69
2019-02-16T23:01:01.803Z,7.70
2019-02-16T23:03:29.629Z,7.75
2019-02-16T23:05:59.274Z,7.72
2019-02-16T23:08:27.051Z,7.64
2019-02-16T23:10:54.861Z,7.60
2019-02-16T23:13:22.667Z,7.59
2019-02-16T23:15:50.471Z,7.58
2019-02-16T23:18:18.522Z,7.61
2019-02-16T23:20:47.818Z,7.41
2019-02-16T23:23:15.688Z,7.23
2019-02-16T23:25:43.505Z,7.20
2019-02-16T23:28:11.266Z,7.24
2019-02-16T23:30:39.034Z,7.37
2019-02-16T23:33:06.851Z,7.42
2019-02-16T23:35:34.615Z,7.37
2019-02-16T23:38:02.458Z,7.30
2019-02-16T23:40:30.214Z,7.25
2019-02-16T23:42:58.028Z,7.27
2019-02-16T23:45:26.259Z,7.23
2019-02-16T23:47:54.052Z,7.34
2019-02-16T23:50:21.783Z,7.30
2019-02-16T23:52:49.574Z,7.19
2019-02-16T23:55:17.371Z,7.18
2019-02-16T23:57:45.110Z,7.11
